sensor_id;sensor_type;location;lat;lon;timestamp;temperature;humidity
41116;DHT22;26861;51.824;4.682;2024-01-30T00:00:21;16.80;62.70
41116;DHT22;26861;51.824;4.682;2024-01-30T00:02:47;16.90;62.40
41116;DHT22;26861;51.824;4.682;2024-01-30T00:05:13;18.20;63.40
41116;DHT22;26861;51.824;4.682;2024-01-30T00:07:39;16.90;62.20
41116;DHT22;26861;51.824;4.682;2024-01-30T00:10:05;16.80;62.80
41116;DHT22;26861;51.824;4.682;2024-01-30T00:12:31;16.70;62.10
41116;DHT22;26861;51.824;4.682;2024-01-30T00:14:57;16.70;62.70
41116;DHT22;26861;51.824;4.682;2024-01-30T00:17:23;16.70;62.60
41116;DHT22;26861;51.824;4.682;2024-01-30T00:19:50;16.70;62.60
41116;DHT22;26861;51.824;4.682;2024-01-30T00:22:16;16.80;63.20
41116;DHT22;26861;51.824;4.682;2024-01-30T00:24:42;16.80;62.80
41116;DHT22;26861;51.824;4.682;2024-01-30T00:27:08;15.00;61.80
41116;DHT22;26861;51.824;4.682;2024-01-30T00:29:34;16.80;62.50
41116;DHT22;26861;51.824;4.682;2024-01-30T00:32:00;16.70;62.50
41116;DHT22;26861;51.824;4.682;2024-01-30T00:34:26;16.70;62.90
41116;DHT22;26861;51.824;4.682;2024-01-30T00:36:51;16.70;62.70
41116;DHT22;26861;51.824;4.682;2024-01-30T00:39:16;16.70;62.90
41116;DHT22;26861;51.824;4.682;2024-01-30T00:41:44;16.70;62.40
41116;DHT22;26861;51.824;4.682;2024-01-30T00:44:10;16.80;62.60
41116;DHT22;26861;51.824;4.682;2024-01-30T00:46:36;16.80;62.90
41116;DHT22;26861;51.824;4.682;2024-01-30T00:49:01;16.80;62.70
41116;DHT22;26861;51.824;4.682;2024-01-30T00:51:27;16.70;63.20
41116;DHT22;26861;51.824;4.682;2024-01-30T00:53:55;16.80;62.70
41116;DHT22;26861;51.824;4.682;2024-01-30T00:56:20;16.80;62.50
41116;DHT22;26861;51.824;4.682;2024-01-30T00:58:46;16.80;62.80
41116;DHT22;26861;51.824;4.682;2024-01-30T01:01:11;16.70;62.60
41116;DHT22;26861;51.824;4.682;2024-01-30T01:03:37;16.80;62.60
41116;DHT22;26861;51.824;4.682;2024-01-30T01:06:03;16.80;62.50
41116;DHT22;26861;51.824;4.682;2024-01-30T01:08:28;16.80;62.20
41116;DHT22;26861;51.824;4.682;2024-01-30T01:10:54;16.80;62.90
41116;DHT22;26861;51.824;4.682;2024-01-30T01:13:19;16.80;62.60
41116;DHT22;26861;51.824;4.682;2024-01-30T01:15:45;16.80;62.60
41116;DHT22;26861;51.824;4.682;2024-01-30T01:18:10;16.70;62.60
41116;DHT22;26861;51.824;4.682;2024-01-30T01:20:36;16.80;62.80
41116;DHT22;26861;51.824;4.682;2024-01-30T01:23:01;16.80;62.70
41116;DHT22;26861;51.824;4.682;2024-01-30T01:25:27;16.80;62.80
41116;DHT22;26861;51.824;4.682;2024-01-30T01:27:52;16.80;62.80
41116;DHT22;26861;51.824;4.682;2024-01-30T01:30:18;16.80;62.60
41116;DHT22;26861;51.824;4.682;2024-01-30T01:32:48;16.80;62.70
41116;DHT22;26861;51.824;4.682;2024-01-30T01:35:23;16.80;62.80
41116;DHT22;26861;51.824;4.682;2024-01-30T01:37:50;16.70;58.60
41116;DHT22;26861;51.824;4.682;2024-01-30T01:40:23;16.80;62.70
41116;DHT22;26861;51.824;4.682;2024-01-30T01:42:52;16.70;58.70
41116;DHT22;26861;51.824;4.682;2024-01-30T01:45:18;16.80;62.70
41116;DHT22;26861;51.824;4.682;2024-01-30T01:47:44;16.80;62.50
41116;DHT22;26861;51.824;4.682;2024-01-30T01:50:15;16.80;62.10
41116;DHT22;26861;51.824;4.682;2024-01-30T01:52:44;16.90;58.70
41116;DHT22;26861;51.824;4.682;2024-01-30T01:55:10;16.70;62.90
41116;DHT22;26861;51.824;4.682;2024-01-30T01:57:36;16.80;62.60
41116;DHT22;26861;51.824;4.682;2024-01-30T02:00:02;16.70;62.70
41116;DHT22;26861;51.824;4.682;2024-01-30T02:02:30;16.80;62.60
41116;DHT22;26861;51.824;4.682;2024-01-30T02:04:56;16.70;62.90
41116;DHT22;26861;51.824;4.682;2024-01-30T02:07:22;17.10;62.90
41116;DHT22;26861;51.824;4.682;2024-01-30T02:09:47;16.70;62.90
41116;DHT22;26861;51.824;4.682;2024-01-30T02:12:13;16.70;62.60
41116;DHT22;26861;51.824;4.682;2024-01-30T02:14:48;16.70;62.40
41116;DHT22;26861;51.824;4.682;2024-01-30T02:17:14;16.70;58.70
41116;DHT22;26861;51.824;4.682;2024-01-30T02:19:39;16.80;62.70
41116;DHT22;26861;51.824;4.682;2024-01-30T02:22:05;16.70;62.80
41116;DHT22;26861;51.824;4.682;2024-01-30T02:24:30;16.70;62.80
41116;DHT22;26861;51.824;4.682;2024-01-30T02:26:56;16.70;63.00
41116;DHT22;26861;51.824;4.682;2024-01-30T02:29:21;16.80;62.60
41116;DHT22;26861;51.824;4.682;2024-01-30T02:31:47;16.70;62.70
41116;DHT22;26861;51.824;4.682;2024-01-30T02:34:13;16.70;62.90
41116;DHT22;26861;51.824;4.682;2024-01-30T02:36:38;16.70;62.80
41116;DHT22;26861;51.824;4.682;2024-01-30T02:39:07;16.70;63.30
41116;DHT22;26861;51.824;4.682;2024-01-30T02:41:33;16.70;63.00
41116;DHT22;26861;51.824;4.682;2024-01-30T02:43:58;16.70;63.30
41116;DHT22;26861;51.824;4.682;2024-01-30T02:46:24;16.60;63.20
41116;DHT22;26861;51.824;4.682;2024-01-30T02:48:49;16.70;63.10
41116;DHT22;26861;51.824;4.682;2024-01-30T02:51:15;16.70;63.20
41116;DHT22;26861;51.824;4.682;2024-01-30T02:53:40;16.70;63.20
41116;DHT22;26861;51.824;4.682;2024-01-30T02:56:06;16.70;63.40
41116;DHT22;26861;51.824;4.682;2024-01-30T02:58:35;16.70;62.60
41116;DHT22;26861;51.824;4.682;2024-01-30T03:01:01;16.70;63.70
41116;DHT22;26861;51.824;4.682;2024-01-30T03:03:26;16.80;62.90
41116;DHT22;26861;51.824;4.682;2024-01-30T03:05:52;16.70;63.50
41116;DHT22;26861;51.824;4.682;2024-01-30T03:08:18;16.70;63.40
41116;DHT22;26861;51.824;4.682;2024-01-30T03:10:43;16.70;63.30
41116;DHT22;26861;51.824;4.682;2024-01-30T03:13:09;16.70;63.10
41116;DHT22;26861;51.824;4.682;2024-01-30T03:15:35;16.70;63.60
41116;DHT22;26861;51.824;4.682;2024-01-30T03:18:01;17.10;63.50
41116;DHT22;26861;51.824;4.682;2024-01-30T03:20:27;16.80;63.60
41116;DHT22;26861;51.824;4.682;2024-01-30T03:22:53;17.40;63.80
41116;DHT22;26861;51.824;4.682;2024-01-30T03:25:19;16.70;63.70
41116;DHT22;26861;51.824;4.682;2024-01-30T03:27:45;16.70;63.50
41116;DHT22;26861;51.824;4.682;2024-01-30T03:30:11;16.80;63.40
41116;DHT22;26861;51.824;4.682;2024-01-30T03:32:37;16.70;63.30
41116;DHT22;26861;51.824;4.682;2024-01-30T03:35:02;16.70;63.60
41116;DHT22;26861;51.824;4.682;2024-01-30T03:37:28;16.70;63.00
41116;DHT22;26861;51.824;4.682;2024-01-30T03:39:54;16.70;63.30
41116;DHT22;26861;51.824;4.682;2024-01-30T03:42:19;16.80;63.30
41116;DHT22;26861;51.824;4.682;2024-01-30T03:44:44;16.70;63.40
41116;DHT22;26861;51.824;4.682;2024-01-30T03:47:10;16.70;63.40
41116;DHT22;26861;51.824;4.682;2024-01-30T03:49:35;17.20;63.70
41116;DHT22;26861;51.824;4.682;2024-01-30T03:52:01;16.70;63.20
41116;DHT22;26861;51.824;4.682;2024-01-30T03:54:26;16.60;63.10
41116;DHT22;26861;51.824;4.682;2024-01-30T03:56:52;16.70;63.50
41116;DHT22;26861;51.824;4.682;2024-01-30T03:59:17;16.70;63.30
41116;DHT22;26861;51.824;4.682;2024-01-30T04:01:47;16.70;63.00
41116;DHT22;26861;51.824;4.682;2024-01-30T04:04:13;16.70;63.40
41116;DHT22;26861;51.824;4.682;2024-01-30T04:06:38;16.60;63.20
41116;DHT22;26861;51.824;4.682;2024-01-30T04:09:04;16.70;63.30
41116;DHT22;26861;51.824;4.682;2024-01-30T04:11:29;16.70;63.20
41116;DHT22;26861;51.824;4.682;2024-01-30T04:13:55;16.70;63.20
41116;DHT22;26861;51.824;4.682;2024-01-30T04:16:20;16.70;63.30
41116;DHT22;26861;51.824;4.682;2024-01-30T04:18:47;16.60;63.50
41116;DHT22;26861;51.824;4.682;2024-01-30T04:21:13;16.70;63.30
41116;DHT22;26861;51.824;4.682;2024-01-30T04:23:39;16.60;63.20
41116;DHT22;26861;51.824;4.682;2024-01-30T04:26:04;16.70;63.00
41116;DHT22;26861;51.824;4.682;2024-01-30T04:28:30;16.80;63.40
41116;DHT22;26861;51.824;4.682;2024-01-30T04:30:55;16.70;63.30
41116;DHT22;26861;51.824;4.682;2024-01-30T04:33:21;16.60;63.20
41116;DHT22;26861;51.824;4.682;2024-01-30T04:35:46;16.70;63.40
41116;DHT22;26861;51.824;4.682;2024-01-30T04:38:12;16.70;63.60
41116;DHT22;26861;51.824;4.682;2024-01-30T04:40:37;16.70;63.70
41116;DHT22;26861;51.824;4.682;2024-01-30T04:43:03;16.70;63.50
41116;DHT22;26861;51.824;4.682;2024-01-30T04:45:28;16.70;62.80
41116;DHT22;26861;51.824;4.682;2024-01-30T04:47:54;16.70;63.50
41116;DHT22;26861;51.824;4.682;2024-01-30T04:50:19;16.70;63.50
41116;DHT22;26861;51.824;4.682;2024-01-30T04:52:45;16.70;63.60
41116;DHT22;26861;51.824;4.682;2024-01-30T04:55:10;16.90;63.70
41116;DHT22;26861;51.824;4.682;2024-01-30T04:57:36;16.80;63.50
41116;DHT22;26861;51.824;4.682;2024-01-30T05:00:02;16.70;63.90
41116;DHT22;26861;51.824;4.682;2024-01-30T05:02:27;16.70;63.40
41116;DHT22;26861;51.824;4.682;2024-01-30T05:04:53;16.70;63.70
41116;DHT22;26861;51.824;4.682;2024-01-30T05:07:18;16.70;63.90
41116;DHT22;26861;51.824;4.682;2024-01-30T05:09:44;16.80;64.20
41116;DHT22;26861;51.824;4.682;2024-01-30T05:12:09;16.80;64.10
41116;DHT22;26861;51.824;4.682;2024-01-30T05:14:35;16.70;64.10
41116;DHT22;26861;51.824;4.682;2024-01-30T05:17:00;16.90;64.40
41116;DHT22;26861;51.824;4.682;2024-01-30T05:19:28;16.70;64.00
41116;DHT22;26861;51.824;4.682;2024-01-30T05:21:53;16.70;64.20
41116;DHT22;26861;51.824;4.682;2024-01-30T05:24:19;16.80;64.20
41116;DHT22;26861;51.824;4.682;2024-01-30T05:26:44;16.70;64.30
41116;DHT22;26861;51.824;4.682;2024-01-30T05:29:10;16.70;64.40
41116;DHT22;26861;51.824;4.682;2024-01-30T05:31:35;16.70;64.40
41116;DHT22;26861;51.824;4.682;2024-01-30T05:34:01;16.80;64.20
41116;DHT22;26861;51.824;4.682;2024-01-30T05:36:26;16.80;64.70
41116;DHT22;26861;51.824;4.682;2024-01-30T05:38:52;16.80;64.50
41116;DHT22;26861;51.824;4.682;2024-01-30T05:41:18;16.80;65.20
41116;DHT22;26861;51.824;4.682;2024-01-30T05:43:43;16.90;64.50
41116;DHT22;26861;51.824;4.682;2024-01-30T05:46:09;16.70;64.20
41116;DHT22;26861;51.824;4.682;2024-01-30T05:48:34;16.80;64.80
41116;DHT22;26861;51.824;4.682;2024-01-30T05:51:01;16.80;64.50
41116;DHT22;26861;51.824;4.682;2024-01-30T05:53:27;16.80;64.50
41116;DHT22;26861;51.824;4.682;2024-01-30T05:55:53;16.80;64.60
41116;DHT22;26861;51.824;4.682;2024-01-30T05:58:19;16.80;64.50
41116;DHT22;26861;51.824;4.682;2024-01-30T06:00:45;16.80;64.50
41116;DHT22;26861;51.824;4.682;2024-01-30T06:03:11;16.80;63.90
41116;DHT22;26861;51.824;4.682;2024-01-30T06:05:37;17.00;64.30
41116;DHT22;26861;51.824;4.682;2024-01-30T06:08:03;16.80;64.50
41116;DHT22;26861;51.824;4.682;2024-01-30T06:10:29;16.80;63.70
41116;DHT22;26861;51.824;4.682;2024-01-30T06:12:55;16.80;64.60
41116;DHT22;26861;51.824;4.682;2024-01-30T06:15:20;16.80;64.30
41116;DHT22;26861;51.824;4.682;2024-01-30T06:17:46;16.80;64.50
41116;DHT22;26861;51.824;4.682;2024-01-30T06:20:12;16.80;64.40
41116;DHT22;26861;51.824;4.682;2024-01-30T06:22:38;16.70;64.50
41116;DHT22;26861;51.824;4.682;2024-01-30T06:25:04;16.80;64.70
41116;DHT22;26861;51.824;4.682;2024-01-30T06:27:30;16.80;64.20
41116;DHT22;26861;51.824;4.682;2024-01-30T06:29:56;16.80;64.50
41116;DHT22;26861;51.824;4.682;2024-01-30T06:32:22;16.80;64.60
41116;DHT22;26861;51.824;4.682;2024-01-30T06:34:48;16.80;64.60
41116;DHT22;26861;51.824;4.682;2024-01-30T06:37:14;16.70;64.50
41116;DHT22;26861;51.824;4.682;2024-01-30T06:39:39;16.80;64.40
41116;DHT22;26861;51.824;4.682;2024-01-30T06:42:05;16.80;64.30
41116;DHT22;26861;51.824;4.682;2024-01-30T06:44:31;16.80;64.50
41116;DHT22;26861;51.824;4.682;2024-01-30T06:46:57;16.80;64.40
41116;DHT22;26861;51.824;4.682;2024-01-30T06:49:23;16.90;64.60
41116;DHT22;26861;51.824;4.682;2024-01-30T06:51:49;16.80;64.40
41116;DHT22;26861;51.824;4.682;2024-01-30T06:54:15;16.80;64.60
41116;DHT22;26861;51.824;4.682;2024-01-30T06:56:41;16.80;64.10
41116;DHT22;26861;51.824;4.682;2024-01-30T06:59:07;16.80;64.50
41116;DHT22;26861;51.824;4.682;2024-01-30T07:01:34;16.80;64.30
41116;DHT22;26861;51.824;4.682;2024-01-30T07:03:59;16.80;64.60
41116;DHT22;26861;51.824;4.682;2024-01-30T07:06:25;16.70;64.30
41116;DHT22;26861;51.824;4.682;2024-01-30T07:08:50;16.70;64.70
41116;DHT22;26861;51.824;4.682;2024-01-30T07:11:19;16.70;64.50
41116;DHT22;26861;51.824;4.682;2024-01-30T07:13:45;16.80;60.10
41116;DHT22;26861;51.824;4.682;2024-01-30T07:16:11;17.00;64.60
41116;DHT22;26861;51.824;4.682;2024-01-30T07:18:36;16.60;64.40
41116;DHT22;26861;51.824;4.682;2024-01-30T07:21:02;16.80;64.00
41116;DHT22;26861;51.824;4.682;2024-01-30T07:23:28;16.70;64.00
41116;DHT22;26861;51.824;4.682;2024-01-30T07:25:55;17.10;64.70
41116;DHT22;26861;51.824;4.682;2024-01-30T07:28:21;16.80;64.60
41116;DHT22;26861;51.824;4.682;2024-01-30T07:30:47;16.80;64.90
41116;DHT22;26861;51.824;4.682;2024-01-30T07:33:13;16.80;64.80
41116;DHT22;26861;51.824;4.682;2024-01-30T07:35:39;16.80;64.80
41116;DHT22;26861;51.824;4.682;2024-01-30T07:38:04;17.10;64.90
41116;DHT22;26861;51.824;4.682;2024-01-30T07:40:30;16.90;64.90
41116;DHT22;26861;51.824;4.682;2024-01-30T07:42:55;16.80;64.70
41116;DHT22;26861;51.824;4.682;2024-01-30T07:45:21;16.70;65.00
41116;DHT22;26861;51.824;4.682;2024-01-30T07:47:51;16.80;64.60
41116;DHT22;26861;51.824;4.682;2024-01-30T07:50:16;16.80;60.80
41116;DHT22;26861;51.824;4.682;2024-01-30T07:52:45;16.80;64.80
41116;DHT22;26861;51.824;4.682;2024-01-30T07:55:10;16.80;65.00
41116;DHT22;26861;51.824;4.682;2024-01-30T07:57:38;16.80;64.70
41116;DHT22;26861;51.824;4.682;2024-01-30T08:00:03;16.90;65.30
41116;DHT22;26861;51.824;4.682;2024-01-30T08:02:33;16.90;64.60
41116;DHT22;26861;51.824;4.682;2024-01-30T08:04:59;16.80;60.60
41116;DHT22;26861;51.824;4.682;2024-01-30T08:07:24;17.00;64.90
41116;DHT22;26861;51.824;4.682;2024-01-30T08:09:50;16.80;64.90
41116;DHT22;26861;51.824;4.682;2024-01-30T08:12:15;17.20;64.90
41116;DHT22;26861;51.824;4.682;2024-01-30T08:14:41;16.90;64.90
41116;DHT22;26861;51.824;4.682;2024-01-30T08:17:07;16.90;64.90
41116;DHT22;26861;51.824;4.682;2024-01-30T08:19:33;16.80;64.50
41116;DHT22;26861;51.824;4.682;2024-01-30T08:21:58;17.00;64.70
41116;DHT22;26861;51.824;4.682;2024-01-30T08:24:24;16.90;64.50
41116;DHT22;26861;51.824;4.682;2024-01-30T08:26:49;16.90;64.70
41116;DHT22;26861;51.824;4.682;2024-01-30T08:29:15;16.90;64.60
41116;DHT22;26861;51.824;4.682;2024-01-30T08:31:40;16.90;65.00
41116;DHT22;26861;51.824;4.682;2024-01-30T08:34:06;17.00;64.40
41116;DHT22;26861;51.824;4.682;2024-01-30T08:36:31;16.90;64.40
41116;DHT22;26861;51.824;4.682;2024-01-30T08:38:57;16.90;64.50
41116;DHT22;26861;51.824;4.682;2024-01-30T08:41:22;16.90;64.50
41116;DHT22;26861;51.824;4.682;2024-01-30T08:43:48;16.90;64.50
41116;DHT22;26861;51.824;4.682;2024-01-30T08:46:16;16.90;64.40
41116;DHT22;26861;51.824;4.682;2024-01-30T08:48:42;16.90;64.70
41116;DHT22;26861;51.824;4.682;2024-01-30T08:51:07;16.90;64.70
41116;DHT22;26861;51.824;4.682;2024-01-30T08:53:34;16.80;64.20
41116;DHT22;26861;51.824;4.682;2024-01-30T08:55:59;16.80;64.50
41116;DHT22;26861;51.824;4.682;2024-01-30T08:58:24;16.90;64.50
41116;DHT22;26861;51.824;4.682;2024-01-30T09:00:50;17.00;64.80
41116;DHT22;26861;51.824;4.682;2024-01-30T09:03:17;16.90;64.10
41116;DHT22;26861;51.824;4.682;2024-01-30T09:05:42;17.00;64.70
41116;DHT22;26861;51.824;4.682;2024-01-30T09:08:08;16.90;64.40
41116;DHT22;26861;51.824;4.682;2024-01-30T09:10:34;16.90;64.30
41116;DHT22;26861;51.824;4.682;2024-01-30T09:12:59;16.90;64.50
41116;DHT22;26861;51.824;4.682;2024-01-30T09:15:25;17.10;64.70
41116;DHT22;26861;51.824;4.682;2024-01-30T09:17:50;16.90;64.60
41116;DHT22;26861;51.824;4.682;2024-01-30T09:20:16;16.90;64.40
41116;DHT22;26861;51.824;4.682;2024-01-30T09:22:41;16.90;64.50
41116;DHT22;26861;51.824;4.682;2024-01-30T09:25:07;16.90;64.50
41116;DHT22;26861;51.824;4.682;2024-01-30T09:27:32;16.90;64.40
41116;DHT22;26861;51.824;4.682;2024-01-30T09:29:58;16.90;64.00
41116;DHT22;26861;51.824;4.682;2024-01-30T09:32:23;16.90;64.60
41116;DHT22;26861;51.824;4.682;2024-01-30T09:34:49;16.90;64.40
41116;DHT22;26861;51.824;4.682;2024-01-30T09:37:14;16.90;64.00
41116;DHT22;26861;51.824;4.682;2024-01-30T09:39:42;16.90;64.50
41116;DHT22;26861;51.824;4.682;2024-01-30T09:44:51;16.90;60.40
41116;DHT22;26861;51.824;4.682;2024-01-30T09:47:18;16.90;64.50
41116;DHT22;26861;51.824;4.682;2024-01-30T09:49:44;16.90;64.40
41116;DHT22;26861;51.824;4.682;2024-01-30T09:52:10;16.90;64.40
41116;DHT22;26861;51.824;4.682;2024-01-30T09:54:36;16.90;64.60
41116;DHT22;26861;51.824;4.682;2024-01-30T09:57:03;16.90;64.50
41116;DHT22;26861;51.824;4.682;2024-01-30T09:59:29;16.90;64.20
41116;DHT22;26861;51.824;4.682;2024-01-30T10:01:55;16.90;64.30
41116;DHT22;26861;51.824;4.682;2024-01-30T10:04:22;16.80;64.50
41116;DHT22;26861;51.824;4.682;2024-01-30T10:06:47;16.90;64.70
41116;DHT22;26861;51.824;4.682;2024-01-30T10:09:13;16.90;64.50
41116;DHT22;26861;51.824;4.682;2024-01-30T10:11:39;16.90;64.60
41116;DHT22;26861;51.824;4.682;2024-01-30T10:14:04;16.90;64.50
41116;DHT22;26861;51.824;4.682;2024-01-30T10:16:30;17.00;64.60
41116;DHT22;26861;51.824;4.682;2024-01-30T10:18:55;16.90;64.50
41116;DHT22;26861;51.824;4.682;2024-01-30T10:21:21;16.90;64.60
41116;DHT22;26861;51.824;4.682;2024-01-30T10:23:46;16.90;64.70
41116;DHT22;26861;51.824;4.682;2024-01-30T10:26:12;17.00;64.80
41116;DHT22;26861;51.824;4.682;2024-01-30T10:28:38;17.00;64.60
41116;DHT22;26861;51.824;4.682;2024-01-30T10:31:03;17.00;64.70
41116;DHT22;26861;51.824;4.682;2024-01-30T10:33:29;16.90;64.20
41116;DHT22;26861;51.824;4.682;2024-01-30T10:35:56;16.90;64.70
41116;DHT22;26861;51.824;4.682;2024-01-30T10:38:25;16.90;65.10
41116;DHT22;26861;51.824;4.682;2024-01-30T10:40:52;16.90;64.50
41116;DHT22;26861;51.824;4.682;2024-01-30T10:43:20;16.90;64.80
41116;DHT22;26861;51.824;4.682;2024-01-30T10:45:47;16.90;64.70
41116;DHT22;26861;51.824;4.682;2024-01-30T10:48:14;16.90;64.80
41116;DHT22;26861;51.824;4.682;2024-01-30T10:50:41;17.00;64.90
41116;DHT22;26861;51.824;4.682;2024-01-30T10:53:08;16.90;64.60
41116;DHT22;26861;51.824;4.682;2024-01-30T10:55:34;17.00;64.70
41116;DHT22;26861;51.824;4.682;2024-01-30T10:58:00;16.90;64.60
41116;DHT22;26861;51.824;4.682;2024-01-30T11:00:25;16.90;64.50
41116;DHT22;26861;51.824;4.682;2024-01-30T11:02:51;16.90;64.00
41116;DHT22;26861;51.824;4.682;2024-01-30T11:05:27;16.90;64.10
41116;DHT22;26861;51.824;4.682;2024-01-30T11:07:52;16.90;64.30
41116;DHT22;26861;51.824;4.682;2024-01-30T11:10:18;16.90;64.40
41116;DHT22;26861;51.824;4.682;2024-01-30T11:12:45;17.00;64.40
41116;DHT22;26861;51.824;4.682;2024-01-30T11:15:15;16.50;64.40
41116;DHT22;26861;51.824;4.682;2024-01-30T11:20:09;16.90;63.80
41116;DHT22;26861;51.824;4.682;2024-01-30T11:22:35;17.10;63.10
41116;DHT22;26861;51.824;4.682;2024-01-30T11:25:01;16.90;63.80
41116;DHT22;26861;51.824;4.682;2024-01-30T11:27:29;16.90;63.30
41116;DHT22;26861;51.824;4.682;2024-01-30T11:30:00;16.90;63.50
41116;DHT22;26861;51.824;4.682;2024-01-30T11:32:26;17.00;63.70
41116;DHT22;26861;51.824;4.682;2024-01-30T11:34:52;16.90;63.50
41116;DHT22;26861;51.824;4.682;2024-01-30T11:37:18;16.90;63.40
41116;DHT22;26861;51.824;4.682;2024-01-30T11:39:45;16.80;63.60
41116;DHT22;26861;51.824;4.682;2024-01-30T11:42:11;16.90;63.60
41116;DHT22;26861;51.824;4.682;2024-01-30T11:44:36;17.10;63.70
41116;DHT22;26861;51.824;4.682;2024-01-30T11:47:02;16.80;63.40
41116;DHT22;26861;51.824;4.682;2024-01-30T11:49:28;16.80;62.90
41116;DHT22;26861;51.824;4.682;2024-01-30T11:51:54;16.80;63.30
41116;DHT22;26861;51.824;4.682;2024-01-30T11:54:19;16.80;63.50
41116;DHT22;26861;51.824;4.682;2024-01-30T11:56:45;16.80;63.30
41116;DHT22;26861;51.824;4.682;2024-01-30T11:59:10;16.80;63.20
41116;DHT22;26861;51.824;4.682;2024-01-30T12:01:36;16.80;62.70
41116;DHT22;26861;51.824;4.682;2024-01-30T12:04:01;16.80;63.10
41116;DHT22;26861;51.824;4.682;2024-01-30T12:06:28;16.70;62.90
41116;DHT22;26861;51.824;4.682;2024-01-30T12:11:22;16.70;58.90
41116;DHT22;26861;51.824;4.682;2024-01-30T12:13:47;16.70;63.00
41116;DHT22;26861;51.824;4.682;2024-01-30T12:16:16;16.70;62.90
41116;DHT22;26861;51.824;4.682;2024-01-30T12:18:41;16.70;62.60
41116;DHT22;26861;51.824;4.682;2024-01-30T12:21:07;16.60;62.70
41116;DHT22;26861;51.824;4.682;2024-01-30T12:23:34;16.60;62.70
41116;DHT22;26861;51.824;4.682;2024-01-30T12:26:00;16.70;62.80
41116;DHT22;26861;51.824;4.682;2024-01-30T12:28:26;16.70;62.90
41116;DHT22;26861;51.824;4.682;2024-01-30T12:31:01;16.60;62.80
41116;DHT22;26861;51.824;4.682;2024-01-30T12:33:27;16.60;58.50
41116;DHT22;26861;51.824;4.682;2024-01-30T12:35:53;16.60;62.80
41116;DHT22;26861;51.824;4.682;2024-01-30T12:38:19;16.60;62.40
41116;DHT22;26861;51.824;4.682;2024-01-30T12:40:44;16.60;62.80
41116;DHT22;26861;51.824;4.682;2024-01-30T12:43:10;16.50;62.20
41116;DHT22;26861;51.824;4.682;2024-01-30T12:45:36;16.60;62.00
41116;DHT22;26861;51.824;4.682;2024-01-30T12:48:02;16.60;62.30
41116;DHT22;26861;51.824;4.682;2024-01-30T12:50:27;16.60;62.00
41116;DHT22;26861;51.824;4.682;2024-01-30T12:52:53;16.60;63.00
41116;DHT22;26861;51.824;4.682;2024-01-30T12:55:18;16.50;62.20
41116;DHT22;26861;51.824;4.682;2024-01-30T12:57:44;16.50;62.30
41116;DHT22;26861;51.824;4.682;2024-01-30T13:00:09;16.50;62.30
41116;DHT22;26861;51.824;4.682;2024-01-30T13:02:35;16.60;62.00
41116;DHT22;26861;51.824;4.682;2024-01-30T13:05:05;16.50;62.30
41116;DHT22;26861;51.824;4.682;2024-01-30T13:07:30;16.50;62.10
41116;DHT22;26861;51.824;4.682;2024-01-30T13:09:56;16.50;62.40
41116;DHT22;26861;51.824;4.682;2024-01-30T13:12:27;16.50;62.40
41116;DHT22;26861;51.824;4.682;2024-01-30T13:14:53;16.50;62.50
41116;DHT22;26861;51.824;4.682;2024-01-30T13:17:19;16.40;62.60
41116;DHT22;26861;51.824;4.682;2024-01-30T13:19:44;16.40;62.30
41116;DHT22;26861;51.824;4.682;2024-01-30T13:22:10;16.40;62.40
41116;DHT22;26861;51.824;4.682;2024-01-30T13:24:35;16.40;62.30
41116;DHT22;26861;51.824;4.682;2024-01-30T13:27:01;16.40;62.50
41116;DHT22;26861;51.824;4.682;2024-01-30T13:29:26;16.40;62.40
41116;DHT22;26861;51.824;4.682;2024-01-30T13:31:52;16.40;62.30
41116;DHT22;26861;51.824;4.682;2024-01-30T13:34:17;16.40;62.20
41116;DHT22;26861;51.824;4.682;2024-01-30T13:36:43;16.40;62.20
41116;DHT22;26861;51.824;4.682;2024-01-30T13:39:08;16.40;62.70
41116;DHT22;26861;51.824;4.682;2024-01-30T13:41:36;16.30;62.50
41116;DHT22;26861;51.824;4.682;2024-01-30T13:44:02;16.30;62.50
41116;DHT22;26861;51.824;4.682;2024-01-30T13:46:29;16.40;62.10
41116;DHT22;26861;51.824;4.682;2024-01-30T13:48:54;16.40;62.60
41116;DHT22;26861;51.824;4.682;2024-01-30T13:51:20;16.30;62.30
41116;DHT22;26861;51.824;4.682;2024-01-30T13:53:45;16.30;62.20
41116;DHT22;26861;51.824;4.682;2024-01-30T13:56:11;16.30;62.10
41116;DHT22;26861;51.824;4.682;2024-01-30T13:58:36;16.30;62.40
41116;DHT22;26861;51.824;4.682;2024-01-30T14:01:02;16.30;62.10
41116;DHT22;26861;51.824;4.682;2024-01-30T14:03:27;16.30;61.90
41116;DHT22;26861;51.824;4.682;2024-01-30T14:05:53;16.40;62.30
41116;DHT22;26861;51.824;4.682;2024-01-30T14:08:18;16.30;62.20
41116;DHT22;26861;51.824;4.682;2024-01-30T14:10:47;16.30;62.20
41116;DHT22;26861;51.824;4.682;2024-01-30T14:13:12;16.60;63.20
41116;DHT22;26861;51.824;4.682;2024-01-30T14:15:38;16.20;62.00
41116;DHT22;26861;51.824;4.682;2024-01-30T14:18:04;16.20;62.50
41116;DHT22;26861;51.824;4.682;2024-01-30T14:20:30;16.00;61.60
41116;DHT22;26861;51.824;4.682;2024-01-30T14:22:56;16.20;62.40
41116;DHT22;26861;51.824;4.682;2024-01-30T14:25:22;16.20;62.20
41116;DHT22;26861;51.824;4.682;2024-01-30T14:27:47;16.20;62.50
41116;DHT22;26861;51.824;4.682;2024-01-30T14:30:13;16.20;62.30
41116;DHT22;26861;51.824;4.682;2024-01-30T14:32:38;16.20;62.30
41116;DHT22;26861;51.824;4.682;2024-01-30T14:35:05;16.20;62.20
41116;DHT22;26861;51.824;4.682;2024-01-30T14:37:31;16.10;61.40
41116;DHT22;26861;51.824;4.682;2024-01-30T14:39:57;16.10;62.20
41116;DHT22;26861;51.824;4.682;2024-01-30T14:42:22;16.20;62.40
41116;DHT22;26861;51.824;4.682;2024-01-30T14:44:47;16.00;62.20
41116;DHT22;26861;51.824;4.682;2024-01-30T14:47:14;16.10;61.80
41116;DHT22;26861;51.824;4.682;2024-01-30T14:49:40;16.10;62.30
41116;DHT22;26861;51.824;4.682;2024-01-30T14:52:05;16.20;62.40
41116;DHT22;26861;51.824;4.682;2024-01-30T14:54:31;16.00;62.50
41116;DHT22;26861;51.824;4.682;2024-01-30T14:56:56;16.10;62.50
41116;DHT22;26861;51.824;4.682;2024-01-30T14:59:22;16.10;62.40
41116;DHT22;26861;51.824;4.682;2024-01-30T15:01:47;16.10;62.30
41116;DHT22;26861;51.824;4.682;2024-01-30T15:04:13;16.00;62.30
41116;DHT22;26861;51.824;4.682;2024-01-30T15:06:39;16.00;62.20
41116;DHT22;26861;51.824;4.682;2024-01-30T15:09:11;16.20;62.50
41116;DHT22;26861;51.824;4.682;2024-01-30T15:11:38;16.00;62.40
41116;DHT22;26861;51.824;4.682;2024-01-30T15:14:04;16.10;62.30
41116;DHT22;26861;51.824;4.682;2024-01-30T15:16:29;16.00;62.50
41116;DHT22;26861;51.824;4.682;2024-01-30T15:18:55;16.00;62.30
41116;DHT22;26861;51.824;4.682;2024-01-30T15:21:20;16.10;62.50
41116;DHT22;26861;51.824;4.682;2024-01-30T15:23:48;15.90;62.30
41116;DHT22;26861;51.824;4.682;2024-01-30T15:26:14;16.10;62.40
41116;DHT22;26861;51.824;4.682;2024-01-30T15:28:39;16.00;62.80